Terminal Aerodrome Forecast
Issued by NWS

Home | Current Version | Previous Version | Text Only | Print | Product List | Glossary On
Versions: 1 2 3 4 5 6 7 8 9 10 11 12 13 14 15 16 17 18 19 20 21 22 23 24 25 26 27
738
FTUS43 KDLH 190340 AAA
TAFHYR
TAF AMD
KHYR 190340Z 1904/1924 03007KT P6SM VCSH OVC035
      TEMPO 1904/1908 5SM -SN OVC025
     FM190800 03009G15KT 6SM -SN OVC011
     FM191600 04011G17KT 4SM -SN OVC011=

USA.gov is the U.S. government's official web portal to all federal, state and local government web resources and services.